sensor_id;sensor_type;location;lat;lon;timestamp;temperature;humidity
55828;DHT22;41758;51.992;5.890;2024-03-02T00:01:10;13.80;61.90
55828;DHT22;41758;51.992;5.890;2024-03-02T00:03:39;13.80;61.80
55828;DHT22;41758;51.992;5.890;2024-03-02T00:06:06;13.90;61.70
55828;DHT22;41758;51.992;5.890;2024-03-02T00:08:32;13.90;61.70
55828;DHT22;41758;51.992;5.890;2024-03-02T00:10:59;13.90;61.80
55828;DHT22;41758;51.992;5.890;2024-03-02T00:13:25;13.90;61.80
55828;DHT22;41758;51.992;5.890;2024-03-02T00:15:57;13.90;61.80
55828;DHT22;41758;51.992;5.890;2024-03-02T00:18:34;13.90;61.80
55828;DHT22;41758;51.992;5.890;2024-03-02T00:21:00;13.90;61.90
55828;DHT22;41758;51.992;5.890;2024-03-02T00:23:30;13.90;61.70
55828;DHT22;41758;51.992;5.890;2024-03-02T00:25:59;13.90;61.40
55828;DHT22;41758;51.992;5.890;2024-03-02T00:28:33;14.00;61.60
55828;DHT22;41758;51.992;5.890;2024-03-02T00:33:31;13.90;61.80
55828;DHT22;41758;51.992;5.890;2024-03-02T00:35:57;14.00;61.60
55828;DHT22;41758;51.992;5.890;2024-03-02T00:38:25;14.00;61.50
55828;DHT22;41758;51.992;5.890;2024-03-02T00:40:51;14.00;61.50
55828;DHT22;41758;51.992;5.890;2024-03-02T00:46:15;14.10;61.40
55828;DHT22;41758;51.992;5.890;2024-03-02T00:49:03;14.10;61.60
55828;DHT22;41758;51.992;5.890;2024-03-02T00:51:34;14.10;61.50
55828;DHT22;41758;51.992;5.890;2024-03-02T00:54:03;14.10;61.50
55828;DHT22;41758;51.992;5.890;2024-03-02T00:56:30;14.10;61.60
55828;DHT22;41758;51.992;5.890;2024-03-02T00:58:56;14.10;61.60
55828;DHT22;41758;51.992;5.890;2024-03-02T01:01:22;14.10;61.70
55828;DHT22;41758;51.992;5.890;2024-03-02T01:03:48;14.10;61.90
55828;DHT22;41758;51.992;5.890;2024-03-02T01:06:15;14.10;62.00
55828;DHT22;41758;51.992;5.890;2024-03-02T01:08:41;14.20;61.90
55828;DHT22;41758;51.992;5.890;2024-03-02T01:11:07;14.20;61.80
55828;DHT22;41758;51.992;5.890;2024-03-02T01:13:33;14.20;61.50
55828;DHT22;41758;51.992;5.890;2024-03-02T01:15:59;14.20;61.40
55828;DHT22;41758;51.992;5.890;2024-03-02T01:18:25;14.10;61.50
55828;DHT22;41758;51.992;5.890;2024-03-02T01:20:51;14.10;61.40
55828;DHT22;41758;51.992;5.890;2024-03-02T01:23:20;14.10;61.40
55828;DHT22;41758;51.992;5.890;2024-03-02T01:25:50;14.10;61.20
55828;DHT22;41758;51.992;5.890;2024-03-02T01:28:16;14.10;61.00
55828;DHT22;41758;51.992;5.890;2024-03-02T01:30:42;14.10;59.70
55828;DHT22;41758;51.992;5.890;2024-03-02T01:33:07;14.00;59.60
55828;DHT22;41758;51.992;5.890;2024-03-02T01:35:33;14.00;59.90
55828;DHT22;41758;51.992;5.890;2024-03-02T01:38:00;14.00;60.20
55828;DHT22;41758;51.992;5.890;2024-03-02T01:40:26;14.00;60.30
55828;DHT22;41758;51.992;5.890;2024-03-02T01:42:53;14.00;60.50
55828;DHT22;41758;51.992;5.890;2024-03-02T01:45:23;14.10;60.30
55828;DHT22;41758;51.992;5.890;2024-03-02T01:47:49;14.00;59.90
55828;DHT22;41758;51.992;5.890;2024-03-02T01:50:15;14.00;59.70
55828;DHT22;41758;51.992;5.890;2024-03-02T01:52:41;14.00;60.00
55828;DHT22;41758;51.992;5.890;2024-03-02T01:55:07;14.00;59.90
55828;DHT22;41758;51.992;5.890;2024-03-02T01:57:33;14.00;60.20
55828;DHT22;41758;51.992;5.890;2024-03-02T02:00:00;14.00;60.30
55828;DHT22;41758;51.992;5.890;2024-03-02T02:02:26;14.00;60.40
55828;DHT22;41758;51.992;5.890;2024-03-02T02:04:52;14.00;60.40
55828;DHT22;41758;51.992;5.890;2024-03-02T02:07:18;13.90;60.40
55828;DHT22;41758;51.992;5.890;2024-03-02T02:09:44;14.00;60.40
55828;DHT22;41758;51.992;5.890;2024-03-02T02:12:10;14.00;60.50
55828;DHT22;41758;51.992;5.890;2024-03-02T02:14:36;13.90;60.80
55828;DHT22;41758;51.992;5.890;2024-03-02T02:17:02;14.00;60.40
55828;DHT22;41758;51.992;5.890;2024-03-02T02:19:28;13.90;60.50
55828;DHT22;41758;51.992;5.890;2024-03-02T02:21:57;13.90;60.50
55828;DHT22;41758;51.992;5.890;2024-03-02T02:24:22;13.80;60.40
55828;DHT22;41758;51.992;5.890;2024-03-02T02:26:48;13.80;60.50
55828;DHT22;41758;51.992;5.890;2024-03-02T02:29:14;13.80;60.90
55828;DHT22;41758;51.992;5.890;2024-03-02T02:31:40;13.80;61.00
55828;DHT22;41758;51.992;5.890;2024-03-02T02:34:06;13.80;61.00
55828;DHT22;41758;51.992;5.890;2024-03-02T02:36:33;13.80;61.10
55828;DHT22;41758;51.992;5.890;2024-03-02T02:39:01;13.80;61.00
55828;DHT22;41758;51.992;5.890;2024-03-02T02:41:29;13.70;61.30
55828;DHT22;41758;51.992;5.890;2024-03-02T02:43:55;13.80;61.50
55828;DHT22;41758;51.992;5.890;2024-03-02T02:46:21;13.80;61.60
55828;DHT22;41758;51.992;5.890;2024-03-02T02:48:46;13.80;61.60
55828;DHT22;41758;51.992;5.890;2024-03-02T02:51:12;13.80;61.40
55828;DHT22;41758;51.992;5.890;2024-03-02T02:53:38;13.80;61.60
55828;DHT22;41758;51.992;5.890;2024-03-02T02:56:06;13.80;61.70
55828;DHT22;41758;51.992;5.890;2024-03-02T02:58:32;13.80;61.80
55828;DHT22;41758;51.992;5.890;2024-03-02T03:00:58;13.70;61.80
55828;DHT22;41758;51.992;5.890;2024-03-02T03:03:23;13.70;61.60
55828;DHT22;41758;51.992;5.890;2024-03-02T03:05:49;13.70;61.60
55828;DHT22;41758;51.992;5.890;2024-03-02T03:08:15;13.70;61.50
55828;DHT22;41758;51.992;5.890;2024-03-02T03:10:42;13.60;61.60
55828;DHT22;41758;51.992;5.890;2024-03-02T03:13:08;13.60;61.70
55828;DHT22;41758;51.992;5.890;2024-03-02T03:15:37;13.60;61.60
55828;DHT22;41758;51.992;5.890;2024-03-02T03:18:03;13.60;61.30
55828;DHT22;41758;51.992;5.890;2024-03-02T03:20:30;13.50;60.80
55828;DHT22;41758;51.992;5.890;2024-03-02T03:22:56;13.50;61.20
55828;DHT22;41758;51.992;5.890;2024-03-02T03:25:22;13.50;61.30
55828;DHT22;41758;51.992;5.890;2024-03-02T03:27:48;13.50;61.40
55828;DHT22;41758;51.992;5.890;2024-03-02T03:30:14;13.40;61.50
55828;DHT22;41758;51.992;5.890;2024-03-02T03:32:40;13.40;61.40
55828;DHT22;41758;51.992;5.890;2024-03-02T03:35:06;13.30;61.40
55828;DHT22;41758;51.992;5.890;2024-03-02T03:37:32;13.30;61.60
55828;DHT22;41758;51.992;5.890;2024-03-02T03:40:05;13.30;61.80
55828;DHT22;41758;51.992;5.890;2024-03-02T03:42:37;13.30;61.90
55828;DHT22;41758;51.992;5.890;2024-03-02T03:45:03;13.30;62.10
55828;DHT22;41758;51.992;5.890;2024-03-02T03:47:31;13.30;62.20
55828;DHT22;41758;51.992;5.890;2024-03-02T03:49:57;13.20;62.10
55828;DHT22;41758;51.992;5.890;2024-03-02T03:52:23;13.20;62.20
55828;DHT22;41758;51.992;5.890;2024-03-02T03:54:49;13.10;62.20
55828;DHT22;41758;51.992;5.890;2024-03-02T03:57:15;13.10;62.30
55828;DHT22;41758;51.992;5.890;2024-03-02T03:59:41;13.00;62.40
55828;DHT22;41758;51.992;5.890;2024-03-02T04:02:08;13.00;62.50
55828;DHT22;41758;51.992;5.890;2024-03-02T04:04:34;12.90;62.60
55828;DHT22;41758;51.992;5.890;2024-03-02T04:07:00;12.90;62.50
55828;DHT22;41758;51.992;5.890;2024-03-02T04:09:25;12.90;62.60
55828;DHT22;41758;51.992;5.890;2024-03-02T04:11:51;12.80;62.80
55828;DHT22;41758;51.992;5.890;2024-03-02T04:14:17;12.80;63.00
55828;DHT22;41758;51.992;5.890;2024-03-02T04:16:43;12.90;62.90
55828;DHT22;41758;51.992;5.890;2024-03-02T04:19:08;12.90;62.90
55828;DHT22;41758;51.992;5.890;2024-03-02T04:21:34;12.90;63.10
55828;DHT22;41758;51.992;5.890;2024-03-02T04:23:59;12.90;63.10
55828;DHT22;41758;51.992;5.890;2024-03-02T04:26:25;12.90;63.10
55828;DHT22;41758;51.992;5.890;2024-03-02T04:28:52;12.90;63.10
55828;DHT22;41758;51.992;5.890;2024-03-02T04:31:18;12.90;63.10
55828;DHT22;41758;51.992;5.890;2024-03-02T04:33:44;12.90;63.20
55828;DHT22;41758;51.992;5.890;2024-03-02T04:36:09;12.90;63.20
55828;DHT22;41758;51.992;5.890;2024-03-02T04:38:36;12.90;63.30
55828;DHT22;41758;51.992;5.890;2024-03-02T04:41:01;12.90;63.30
55828;DHT22;41758;51.992;5.890;2024-03-02T04:43:27;13.00;63.30
55828;DHT22;41758;51.992;5.890;2024-03-02T04:45:53;12.90;63.10
55828;DHT22;41758;51.992;5.890;2024-03-02T04:48:18;12.90;63.10
55828;DHT22;41758;51.992;5.890;2024-03-02T04:50:45;12.90;63.00
55828;DHT22;41758;51.992;5.890;2024-03-02T04:53:10;12.90;62.90
55828;DHT22;41758;51.992;5.890;2024-03-02T04:55:36;12.80;63.00
55828;DHT22;41758;51.992;5.890;2024-03-02T04:58:04;12.80;63.00
55828;DHT22;41758;51.992;5.890;2024-03-02T05:00:30;12.70;63.00
55828;DHT22;41758;51.992;5.890;2024-03-02T05:02:56;12.60;63.00
55828;DHT22;41758;51.992;5.890;2024-03-02T05:05:22;12.60;63.00
55828;DHT22;41758;51.992;5.890;2024-03-02T05:07:47;12.60;63.10
55828;DHT22;41758;51.992;5.890;2024-03-02T05:10:13;12.50;63.20
55828;DHT22;41758;51.992;5.890;2024-03-02T05:12:39;12.40;63.20
55828;DHT22;41758;51.992;5.890;2024-03-02T05:15:11;12.40;63.20
55828;DHT22;41758;51.992;5.890;2024-03-02T05:17:38;12.40;63.30
55828;DHT22;41758;51.992;5.890;2024-03-02T05:20:08;12.40;63.50
55828;DHT22;41758;51.992;5.890;2024-03-02T05:22:34;12.40;63.50
55828;DHT22;41758;51.992;5.890;2024-03-02T05:25:01;12.30;63.60
55828;DHT22;41758;51.992;5.890;2024-03-02T05:27:27;12.40;63.60
55828;DHT22;41758;51.992;5.890;2024-03-02T05:29:53;12.30;63.70
55828;DHT22;41758;51.992;5.890;2024-03-02T05:32:18;12.30;63.70
55828;DHT22;41758;51.992;5.890;2024-03-02T05:34:44;12.30;63.70
55828;DHT22;41758;51.992;5.890;2024-03-02T05:37:10;12.30;63.70
55828;DHT22;41758;51.992;5.890;2024-03-02T05:39:35;12.30;63.70
55828;DHT22;41758;51.992;5.890;2024-03-02T05:42:01;12.30;63.60
55828;DHT22;41758;51.992;5.890;2024-03-02T05:44:27;12.20;63.40
55828;DHT22;41758;51.992;5.890;2024-03-02T05:46:52;12.20;63.40
55828;DHT22;41758;51.992;5.890;2024-03-02T05:49:18;12.20;63.50
55828;DHT22;41758;51.992;5.890;2024-03-02T05:51:43;12.10;63.50
55828;DHT22;41758;51.992;5.890;2024-03-02T05:54:09;12.10;63.50
55828;DHT22;41758;51.992;5.890;2024-03-02T05:56:35;12.00;63.60
55828;DHT22;41758;51.992;5.890;2024-03-02T05:59:01;12.00;63.60
55828;DHT22;41758;51.992;5.890;2024-03-02T06:01:39;12.00;63.60
55828;DHT22;41758;51.992;5.890;2024-03-02T06:04:06;11.90;63.70
55828;DHT22;41758;51.992;5.890;2024-03-02T06:06:32;11.90;63.80
55828;DHT22;41758;51.992;5.890;2024-03-02T06:09:00;11.90;63.80
55828;DHT22;41758;51.992;5.890;2024-03-02T06:11:26;11.90;63.90
55828;DHT22;41758;51.992;5.890;2024-03-02T06:13:51;11.90;63.80
55828;DHT22;41758;51.992;5.890;2024-03-02T06:16:17;11.90;63.80
55828;DHT22;41758;51.992;5.890;2024-03-02T06:18:43;11.90;63.70
55828;DHT22;41758;51.992;5.890;2024-03-02T06:21:08;11.90;63.70
55828;DHT22;41758;51.992;5.890;2024-03-02T06:23:34;11.90;63.70
55828;DHT22;41758;51.992;5.890;2024-03-02T06:26:01;11.80;63.70
55828;DHT22;41758;51.992;5.890;2024-03-02T06:28:28;11.80;63.80
55828;DHT22;41758;51.992;5.890;2024-03-02T06:30:53;11.80;63.80
55828;DHT22;41758;51.992;5.890;2024-03-02T06:33:19;11.80;63.90
55828;DHT22;41758;51.992;5.890;2024-03-02T06:35:45;11.80;63.90
55828;DHT22;41758;51.992;5.890;2024-03-02T06:38:11;11.80;63.90
55828;DHT22;41758;51.992;5.890;2024-03-02T06:40:36;11.80;64.10
55828;DHT22;41758;51.992;5.890;2024-03-02T06:43:05;11.80;64.30
55828;DHT22;41758;51.992;5.890;2024-03-02T06:45:30;11.80;64.40
55828;DHT22;41758;51.992;5.890;2024-03-02T06:47:56;11.90;64.40
55828;DHT22;41758;51.992;5.890;2024-03-02T06:50:22;11.90;64.20
55828;DHT22;41758;51.992;5.890;2024-03-02T06:52:48;12.00;64.30
55828;DHT22;41758;51.992;5.890;2024-03-02T06:55:13;12.10;64.20
55828;DHT22;41758;51.992;5.890;2024-03-02T06:57:39;12.10;64.20
55828;DHT22;41758;51.992;5.890;2024-03-02T07:00:05;12.10;64.20
55828;DHT22;41758;51.992;5.890;2024-03-02T07:02:34;12.20;64.10
55828;DHT22;41758;51.992;5.890;2024-03-02T07:05:02;12.30;64.10
55828;DHT22;41758;51.992;5.890;2024-03-02T07:07:28;12.30;63.80
55828;DHT22;41758;51.992;5.890;2024-03-02T07:09:53;12.40;63.90
55828;DHT22;41758;51.992;5.890;2024-03-02T07:12:19;12.40;63.80
55828;DHT22;41758;51.992;5.890;2024-03-02T07:14:44;12.40;63.60
55828;DHT22;41758;51.992;5.890;2024-03-02T07:17:22;12.40;63.60
55828;DHT22;41758;51.992;5.890;2024-03-02T07:19:48;12.40;63.60
55828;DHT22;41758;51.992;5.890;2024-03-02T07:22:14;12.40;63.50
55828;DHT22;41758;51.992;5.890;2024-03-02T07:24:43;12.30;63.40
55828;DHT22;41758;51.992;5.890;2024-03-02T07:27:09;12.30;63.40
55828;DHT22;41758;51.992;5.890;2024-03-02T07:29:36;12.30;63.40
55828;DHT22;41758;51.992;5.890;2024-03-02T07:32:02;12.30;63.50
55828;DHT22;41758;51.992;5.890;2024-03-02T07:34:27;12.30;63.60
55828;DHT22;41758;51.992;5.890;2024-03-02T07:36:53;12.30;63.70
55828;DHT22;41758;51.992;5.890;2024-03-02T07:39:19;12.40;63.80
55828;DHT22;41758;51.992;5.890;2024-03-02T07:41:45;12.40;64.00
55828;DHT22;41758;51.992;5.890;2024-03-02T07:44:11;12.50;64.10
55828;DHT22;41758;51.992;5.890;2024-03-02T07:46:41;12.60;64.00
55828;DHT22;41758;51.992;5.890;2024-03-02T07:49:07;12.70;63.90
55828;DHT22;41758;51.992;5.890;2024-03-02T07:51:33;12.70;63.90
55828;DHT22;41758;51.992;5.890;2024-03-02T07:53:59;12.80;64.00
55828;DHT22;41758;51.992;5.890;2024-03-02T07:56:25;12.80;64.20
55828;DHT22;41758;51.992;5.890;2024-03-02T07:58:50;12.90;64.30
55828;DHT22;41758;51.992;5.890;2024-03-02T08:01:16;13.00;64.00
55828;DHT22;41758;51.992;5.890;2024-03-02T08:03:43;13.10;63.90
55828;DHT22;41758;51.992;5.890;2024-03-02T08:06:22;13.20;63.60
55828;DHT22;41758;51.992;5.890;2024-03-02T08:08:48;13.30;63.10
55828;DHT22;41758;51.992;5.890;2024-03-02T08:11:14;13.30;63.30
55828;DHT22;41758;51.992;5.890;2024-03-02T08:13:39;13.40;63.50
55828;DHT22;41758;51.992;5.890;2024-03-02T08:16:05;13.50;63.50
55828;DHT22;41758;51.992;5.890;2024-03-02T08:18:35;13.60;63.60
55828;DHT22;41758;51.992;5.890;2024-03-02T08:21:00;13.70;63.40
55828;DHT22;41758;51.992;5.890;2024-03-02T08:23:26;13.80;63.40
55828;DHT22;41758;51.992;5.890;2024-03-02T08:25:52;13.90;63.30
55828;DHT22;41758;51.992;5.890;2024-03-02T08:28:18;13.90;63.00
55828;DHT22;41758;51.992;5.890;2024-03-02T08:30:43;13.90;62.30
55828;DHT22;41758;51.992;5.890;2024-03-02T08:33:09;13.90;61.80
55828;DHT22;41758;51.992;5.890;2024-03-02T08:35:35;13.90;61.30
55828;DHT22;41758;51.992;5.890;2024-03-02T08:38:04;13.90;61.50
55828;DHT22;41758;51.992;5.890;2024-03-02T08:40:30;13.90;61.10
55828;DHT22;41758;51.992;5.890;2024-03-02T08:42:56;13.90;61.10
55828;DHT22;41758;51.992;5.890;2024-03-02T08:45:22;13.90;61.20
55828;DHT22;41758;51.992;5.890;2024-03-02T08:47:48;13.90;60.70
55828;DHT22;41758;51.992;5.890;2024-03-02T08:50:14;13.90;60.80
55828;DHT22;41758;51.992;5.890;2024-03-02T08:52:39;13.90;60.80
55828;DHT22;41758;51.992;5.890;2024-03-02T08:55:06;13.90;60.80
55828;DHT22;41758;51.992;5.890;2024-03-02T08:57:33;13.90;60.20
55828;DHT22;41758;51.992;5.890;2024-03-02T08:59:59;13.90;60.30
55828;DHT22;41758;51.992;5.890;2024-03-02T09:02:25;13.90;60.80
55828;DHT22;41758;51.992;5.890;2024-03-02T09:04:51;13.90;60.60
55828;DHT22;41758;51.992;5.890;2024-03-02T09:07:17;13.90;60.40
55828;DHT22;41758;51.992;5.890;2024-03-02T09:09:42;13.90;60.50
55828;DHT22;41758;51.992;5.890;2024-03-02T09:12:08;14.00;60.70
55828;DHT22;41758;51.992;5.890;2024-03-02T09:14:35;14.00;61.00
55828;DHT22;41758;51.992;5.890;2024-03-02T09:17:02;14.00;61.10
55828;DHT22;41758;51.992;5.890;2024-03-02T09:19:29;14.10;61.20
55828;DHT22;41758;51.992;5.890;2024-03-02T09:21:54;14.10;60.60
55828;DHT22;41758;51.992;5.890;2024-03-02T09:24:21;14.20;60.70
55828;DHT22;41758;51.992;5.890;2024-03-02T09:26:47;14.20;60.90
55828;DHT22;41758;51.992;5.890;2024-03-02T09:29:13;14.20;60.40
55828;DHT22;41758;51.992;5.890;2024-03-02T09:31:42;14.30;60.20
55828;DHT22;41758;51.992;5.890;2024-03-02T09:34:09;14.30;60.50
55828;DHT22;41758;51.992;5.890;2024-03-02T09:36:34;14.30;60.20
55828;DHT22;41758;51.992;5.890;2024-03-02T09:39:00;14.30;59.90
55828;DHT22;41758;51.992;5.890;2024-03-02T09:41:26;14.30;60.20
55828;DHT22;41758;51.992;5.890;2024-03-02T09:43:52;14.40;60.00
55828;DHT22;41758;51.992;5.890;2024-03-02T09:46:18;14.40;60.10
55828;DHT22;41758;51.992;5.890;2024-03-02T09:48:45;14.40;59.80
55828;DHT22;41758;51.992;5.890;2024-03-02T09:51:11;14.50;59.50
55828;DHT22;41758;51.992;5.890;2024-03-02T09:53:37;14.50;58.90
55828;DHT22;41758;51.992;5.890;2024-03-02T09:56:03;14.50;58.80
55828;DHT22;41758;51.992;5.890;2024-03-02T09:58:30;14.60;58.60
55828;DHT22;41758;51.992;5.890;2024-03-02T10:00:56;14.60;58.60
55828;DHT22;41758;51.992;5.890;2024-03-02T10:03:26;14.60;58.10
55828;DHT22;41758;51.992;5.890;2024-03-02T10:05:54;14.70;56.90
55828;DHT22;41758;51.992;5.890;2024-03-02T10:08:20;14.70;57.70
55828;DHT22;41758;51.992;5.890;2024-03-02T10:10:45;14.80;58.40
55828;DHT22;41758;51.992;5.890;2024-03-02T10:13:13;14.80;58.40
55828;DHT22;41758;51.992;5.890;2024-03-02T10:15:39;14.90;58.50
55828;DHT22;41758;51.992;5.890;2024-03-02T10:18:12;15.00;58.00
55828;DHT22;41758;51.992;5.890;2024-03-02T10:20:39;15.10;57.90
55828;DHT22;41758;51.992;5.890;2024-03-02T10:23:16;15.20;57.50
55828;DHT22;41758;51.992;5.890;2024-03-02T10:25:43;15.20;56.70
55828;DHT22;41758;51.992;5.890;2024-03-02T10:28:10;15.30;57.10
55828;DHT22;41758;51.992;5.890;2024-03-02T10:30:38;15.30;57.10
55828;DHT22;41758;51.992;5.890;2024-03-02T10:33:06;15.30;57.00
55828;DHT22;41758;51.992;5.890;2024-03-02T10:35:32;15.40;57.30
55828;DHT22;41758;51.992;5.890;2024-03-02T10:38:04;15.50;57.50
55828;DHT22;41758;51.992;5.890;2024-03-02T10:40:31;15.60;57.40
55828;DHT22;41758;51.992;5.890;2024-03-02T10:42:57;15.60;57.00
55828;DHT22;41758;51.992;5.890;2024-03-02T10:45:24;15.60;56.80
55828;DHT22;41758;51.992;5.890;2024-03-02T10:47:50;15.70;57.10
55828;DHT22;41758;51.992;5.890;2024-03-02T10:50:16;15.80;57.40
55828;DHT22;41758;51.992;5.890;2024-03-02T10:52:42;16.00;57.50
55828;DHT22;41758;51.992;5.890;2024-03-02T10:55:11;16.10;57.10
55828;DHT22;41758;51.992;5.890;2024-03-02T10:57:58;16.30;57.30
55828;DHT22;41758;51.992;5.890;2024-03-02T11:00:25;16.50;57.20
55828;DHT22;41758;51.992;5.890;2024-03-02T11:03:05;16.70;56.20
55828;DHT22;41758;51.992;5.890;2024-03-02T11:05:40;16.80;55.20
55828;DHT22;41758;51.992;5.890;2024-03-02T11:08:08;16.90;55.20
55828;DHT22;41758;51.992;5.890;2024-03-02T11:10:35;17.10;55.40
55828;DHT22;41758;51.992;5.890;2024-03-02T11:13:05;17.30;55.00
55828;DHT22;41758;51.992;5.890;2024-03-02T11:15:31;17.30;54.60
55828;DHT22;41758;51.992;5.890;2024-03-02T11:17:59;17.50;54.90
55828;DHT22;41758;51.992;5.890;2024-03-02T11:20:25;17.70;54.10
55828;DHT22;41758;51.992;5.890;2024-03-02T11:22:51;17.80;54.50
55828;DHT22;41758;51.992;5.890;2024-03-02T11:25:25;18.10;55.30
55828;DHT22;41758;51.992;5.890;2024-03-02T11:28:07;18.40;55.60
55828;DHT22;41758;51.992;5.890;2024-03-02T11:33:04;19.00;55.40
55828;DHT22;41758;51.992;5.890;2024-03-02T11:35:36;19.20;55.00
55828;DHT22;41758;51.992;5.890;2024-03-02T11:38:06;19.40;54.60
55828;DHT22;41758;51.992;5.890;2024-03-02T11:40:32;19.60;54.50
55828;DHT22;41758;51.992;5.890;2024-03-02T11:43:01;19.80;54.80
55828;DHT22;41758;51.992;5.890;2024-03-02T11:45:28;20.00;54.50
55828;DHT22;41758;51.992;5.890;2024-03-02T11:47:54;20.20;53.70
55828;DHT22;41758;51.992;5.890;2024-03-02T11:50:31;20.30;52.40
55828;DHT22;41758;51.992;5.890;2024-03-02T11:52:58;20.50;53.40
55828;DHT22;41758;51.992;5.890;2024-03-02T11:55:25;20.70;53.90
55828;DHT22;41758;51.992;5.890;2024-03-02T11:57:52;20.90;53.30
55828;DHT22;41758;51.992;5.890;2024-03-02T12:00:19;21.00;53.20
55828;DHT22;41758;51.992;5.890;2024-03-02T12:02:59;21.10;53.30
55828;DHT22;41758;51.992;5.890;2024-03-02T12:05:26;21.30;53.40
55828;DHT22;41758;51.992;5.890;2024-03-02T12:08:04;21.40;53.90
55828;DHT22;41758;51.992;5.890;2024-03-02T12:10:31;21.70;53.10
55828;DHT22;41758;51.992;5.890;2024-03-02T12:13:03;21.90;53.10
55828;DHT22;41758;51.992;5.890;2024-03-02T12:15:32;22.20;52.10
55828;DHT22;41758;51.992;5.890;2024-03-02T12:18:00;22.50;51.90
55828;DHT22;41758;51.992;5.890;2024-03-02T12:20:27;22.80;49.50
55828;DHT22;41758;51.992;5.890;2024-03-02T12:23:00;22.90;46.90
55828;DHT22;41758;51.992;5.890;2024-03-02T12:25:26;22.80;44.90
55828;DHT22;41758;51.992;5.890;2024-03-02T12:27:55;23.00;45.40
55828;DHT22;41758;51.992;5.890;2024-03-02T12:30:21;23.20;44.50
55828;DHT22;41758;51.992;5.890;2024-03-02T12:32:47;23.10;42.50
55828;DHT22;41758;51.992;5.890;2024-03-02T12:35:14;23.10;43.80
55828;DHT22;41758;51.992;5.890;2024-03-02T12:37:47;23.20;44.70
55828;DHT22;41758;51.992;5.890;2024-03-02T12:40:14;23.30;44.10
55828;DHT22;41758;51.992;5.890;2024-03-02T12:42:40;23.40;45.00
55828;DHT22;41758;51.992;5.890;2024-03-02T12:45:08;23.70;44.90
55828;DHT22;41758;51.992;5.890;2024-03-02T12:47:34;23.90;42.20
55828;DHT22;41758;51.992;5.890;2024-03-02T12:50:00;23.90;41.30
55828;DHT22;41758;51.992;5.890;2024-03-02T12:52:26;23.80;40.50
55828;DHT22;41758;51.992;5.890;2024-03-02T12:54:52;23.70;42.20
55828;DHT22;41758;51.992;5.890;2024-03-02T12:57:25;23.90;41.90
55828;DHT22;41758;51.992;5.890;2024-03-02T12:59:52;24.30;43.00
55828;DHT22;41758;51.992;5.890;2024-03-02T13:02:18;24.80;43.00
55828;DHT22;41758;51.992;5.890;2024-03-02T13:04:44;25.30;42.90
55828;DHT22;41758;51.992;5.890;2024-03-02T13:07:11;25.70;43.20
55828;DHT22;41758;51.992;5.890;2024-03-02T13:09:39;26.20;42.40
55828;DHT22;41758;51.992;5.890;2024-03-02T13:12:05;26.50;42.30
55828;DHT22;41758;51.992;5.890;2024-03-02T13:14:35;26.80;41.90
55828;DHT22;41758;51.992;5.890;2024-03-02T13:17:01;27.00;41.70
55828;DHT22;41758;51.992;5.890;2024-03-02T13:19:29;27.20;41.40
55828;DHT22;41758;51.992;5.890;2024-03-02T13:21:57;27.70;41.60
55828;DHT22;41758;51.992;5.890;2024-03-02T13:24:23;28.20;41.00
55828;DHT22;41758;51.992;5.890;2024-03-02T13:26:51;28.70;40.70
55828;DHT22;41758;51.992;5.890;2024-03-02T13:29:21;29.00;39.70
55828;DHT22;41758;51.992;5.890;2024-03-02T13:31:47;29.10;39.50
55828;DHT22;41758;51.992;5.890;2024-03-02T13:34:12;29.00;37.60
55828;DHT22;41758;51.992;5.890;2024-03-02T13:36:38;28.60;38.20
55828;DHT22;41758;51.992;5.890;2024-03-02T13:39:04;28.30;38.20
55828;DHT22;41758;51.992;5.890;2024-03-02T13:41:36;28.10;38.30
55828;DHT22;41758;51.992;5.890;2024-03-02T13:44:02;27.90;38.80
55828;DHT22;41758;51.992;5.890;2024-03-02T13:46:28;27.70;38.80
55828;DHT22;41758;51.992;5.890;2024-03-02T13:48:54;27.40;38.50
55828;DHT22;41758;51.992;5.890;2024-03-02T13:51:24;26.90;38.50
55828;DHT22;41758;51.992;5.890;2024-03-02T13:53:50;26.30;38.00
55828;DHT22;41758;51.992;5.890;2024-03-02T13:56:16;25.70;38.50
55828;DHT22;41758;51.992;5.890;2024-03-02T13:58:43;25.20;38.70
55828;DHT22;41758;51.992;5.890;2024-03-02T14:01:09;24.60;39.20
55828;DHT22;41758;51.992;5.890;2024-03-02T14:03:35;24.20;40.10
55828;DHT22;41758;51.992;5.890;2024-03-02T14:06:00;23.80;39.90
55828;DHT22;41758;51.992;5.890;2024-03-02T14:08:26;23.30;40.40
55828;DHT22;41758;51.992;5.890;2024-03-02T14:10:52;22.90;40.90
55828;DHT22;41758;51.992;5.890;2024-03-02T14:13:18;22.60;40.90
55828;DHT22;41758;51.992;5.890;2024-03-02T14:15:44;22.20;41.30
55828;DHT22;41758;51.992;5.890;2024-03-02T14:18:10;21.90;41.50
55828;DHT22;41758;51.992;5.890;2024-03-02T14:20:36;21.70;42.10
55828;DHT22;41758;51.992;5.890;2024-03-02T14:23:02;21.60;42.50
55828;DHT22;41758;51.992;5.890;2024-03-02T14:25:29;21.40;42.90
55828;DHT22;41758;51.992;5.890;2024-03-02T14:27:57;21.30;42.90
55828;DHT22;41758;51.992;5.890;2024-03-02T14:30:23;21.10;43.20
55828;DHT22;41758;51.992;5.890;2024-03-02T14:32:49;21.00;43.30
55828;DHT22;41758;51.992;5.890;2024-03-02T14:35:16;20.80;43.40
55828;DHT22;41758;51.992;5.890;2024-03-02T14:37:41;20.70;43.50
55828;DHT22;41758;51.992;5.890;2024-03-02T14:40:08;20.50;43.80
55828;DHT22;41758;51.992;5.890;2024-03-02T14:42:35;20.40;44.20
55828;DHT22;41758;51.992;5.890;2024-03-02T14:45:01;20.30;44.40
55828;DHT22;41758;51.992;5.890;2024-03-02T14:47:32;20.10;44.50
55828;DHT22;41758;51.992;5.890;2024-03-02T14:50:02;20.10;44.40
55828;DHT22;41758;51.992;5.890;2024-03-02T14:52:32;19.90;44.70
55828;DHT22;41758;51.992;5.890;2024-03-02T14:54:58;19.80;44.60
55828;DHT22;41758;51.992;5.890;2024-03-02T14:57:24;19.80;44.90
55828;DHT22;41758;51.992;5.890;2024-03-02T14:59:49;19.70;45.10
55828;DHT22;41758;51.992;5.890;2024-03-02T15:02:15;19.70;44.60
55828;DHT22;41758;51.992;5.890;2024-03-02T15:04:41;19.70;44.90
55828;DHT22;41758;51.992;5.890;2024-03-02T15:07:06;19.70;45.40
55828;DHT22;41758;51.992;5.890;2024-03-02T15:09:32;19.70;45.50
55828;DHT22;41758;51.992;5.890;2024-03-02T15:12:00;19.70;45.80
55828;DHT22;41758;51.992;5.890;2024-03-02T15:14:26;19.70;46.00
55828;DHT22;41758;51.992;5.890;2024-03-02T15:16:55;19.70;46.00
55828;DHT22;41758;51.992;5.890;2024-03-02T15:19:21;19.60;45.90
55828;DHT22;41758;51.992;5.890;2024-03-02T15:21:47;19.60;46.20
55828;DHT22;41758;51.992;5.890;2024-03-02T15:24:13;19.50;46.30
55828;DHT22;41758;51.992;5.890;2024-03-02T15:26:39;19.40;46.20
55828;DHT22;41758;51.992;5.890;2024-03-02T15:29:05;19.40;46.50
55828;DHT22;41758;51.992;5.890;2024-03-02T15:31:30;19.40;46.60
55828;DHT22;41758;51.992;5.890;2024-03-02T15:33:56;19.50;46.70
55828;DHT22;41758;51.992;5.890;2024-03-02T15:36:22;19.60;46.90